Latest Coastal Weather Observations for Devonport Airport

IDV60701

Issued at 8:05 pm EST Thursday 24 April 2014 (issued every 10 minutes, with the page automatically refreshed every 10 minutes)

About coastal observations | Map of coastal stations | Coastal observations for VIC | Marine services | Other Formats
Station Details ID: 091126 Name: DEVONPORT AIRPORT Lat: -41.17 Lon: 146.43 Height: 8.0 m
Data from the previous 72 hours. | See also: Recent months at Devonport Airport
Date/Time
EST
Temp

°C
Wind Pressure Rain
since 9am
mm
Weather Cloud Vis
km
Sea
Height
m
Swell
Dir
 
Speed
knots
Gust
knots
hPa Trend Height
m
Period
s
Dir
24/08:00pm 7.5 W 7 9 1018.8 - 0.0 - - 10 - - - -
24/07:30pm 8.3 W 12 14 1018.0 - 0.0 - - 10 - - - -
24/07:00pm 8.0 W 9 11 1017.7 - 0.0 - - 10 - - - -
24/06:30pm 7.4 W 6 8 1017.0 - 0.0 - - 10 - - - -
24/06:00pm 8.8 W 11 14 1016.2 - 0.0 - - 10 - - - -
24/05:30pm 9.3 W 11 13 1015.6 - 0.0 - - 10 - - - -
24/05:00pm 11.2 WSW 13 17 1015.1 - 0.0 - Partly cloudy 10 - - - -
24/04:30pm 11.8 WSW 15 20 1014.3 - 0.0 - - 10 - - - -
24/04:11pm 12.4 W 16 26 1013.9 - 0.0 - Partly cloudy 10 - - - -
24/04:00pm 12.7 W 16 22 1013.7 - 0.0 - Partly cloudy 10 - - - -
24/03:30pm 13.3 WSW 13 19 1013.1 - 0.0 - Partly cloudy 10 - - - -
24/03:00pm 13.6 WSW 15 23 1012.6 - 0.0 - - 10 - - - -
24/02:30pm 13.1 SW 13 17 1012.3 - 0.0 - - 10 - - - -
24/02:00pm 13.7 WSW 18 24 1011.6 - 0.0 - - 10 - - - -
24/01:50pm 13.6 WSW 17 27 1011.5 - 0.0 - - 10 - - - -
24/01:30pm 13.1 WSW 18 25 1011.2 - 0.0 - Partly cloudy 10 - - - -
24/01:29pm 13.4 WSW 18 28 1011.3 - 0.0 - Partly cloudy 10 - - - -
24/01:00pm 13.1 WSW 12 18 1010.9 - 0.0 - Partly cloudy 10 - - - -
24/12:30pm 13.0 SW 13 17 1010.5 - 0.0 - Partly cloudy 10 - - - -
24/12:00pm 12.5 SW 14 18 1010.6 - 0.0 - Partly cloudy 10 - - - -
24/11:46am 11.6 SW 15 25 1010.4 - 0.0 - Partly cloudy 10 - - - -
24/11:30am 13.5 WSW 17 24 1010.2 - 0.0 - Partly cloudy 10 - - - -
24/11:00am 12.1 W 19 27 1009.6 - 0.0 - Partly cloudy 10 - - - -
24/10:30am 12.2 W 19 26 1008.9 - 0.0 - - 10 - - - -
24/10:00am 11.7 WSW 18 28 1008.4 - 0.0 - Partly cloudy 10 - - - -
24/09:56am 11.6 WSW 17 28 1008.4 - 0.0 - Partly cloudy 10 - - - -
24/09:30am 11.8 W 16 25 1008.1 - 0.0 - - 10 - - - -
24/09:14am 11.6 W 16 26 1007.6 - 0.0 - - 10 - - - -
24/09:00am 11.4 W 16 24 1007.3 - 4.2 - Mostly clear 10 - - - -
24/08:30am 11.3 W 16 21 1006.7 - 4.2 - Partly cloudy 10 - - - -
24/08:00am 11.1 W 18 26 1006.0 - 4.2 - Partly cloudy 10 - - - -
24/07:30am 11.5 WNW 17 21 1004.9 - 4.2 - - 10 - - - -
24/07:00am 12.1 W 18 25 1004.3 - 4.2 - Partly cloudy 10 - - - -
24/06:30am 12.0 WNW 14 21 1004.0 - 4.2 - Partly cloudy 10 - - - -
24/06:00am 10.8 WNW 9 11 1003.9 - 4.2 - Cloudy 10 - - - -
24/05:30am 10.5 W 13 19 1004.1 - 3.8 - Cloudy 10 - - - -
24/05:00am 11.9 W 16 22 1003.5 - 1.8 - Partly cloudy 10 - - - -
24/04:44am 12.0 WSW 18 29 1002.3 - 1.6 - Partly cloudy 10 - - - -
24/04:39am 11.9 WSW 19 35 1002.3 - 1.6 - Partly cloudy 10 - - - -
24/04:33am 12.0 WSW 18 45 1002.0 - 1.6 - Partly cloudy 6 - - - -
24/04:30am 12.1 W 32 45 1001.8 - 1.6 - Partly cloudy 5 - - - -
24/04:27am 12.6 W 35 45 1001.3 - 1.4 - Partly cloudy 5 - - - -
24/04:26am 13.0 WNW 34 43 1001.2 - 1.2 - Partly cloudy 6 - - - -
24/04:06am 15.3 NNW 27 37 1001.8 - 1.0 - Partly cloudy 10 - - - -
24/04:00am 16.2 NW 28 37 1001.8 - 1.0 - Partly cloudy 10 - - - -
24/03:38am 16.6 NNW 30 42 1001.9 - 1.0 - Partly cloudy 10 - - - -
24/03:30am 16.4 NNW 29 38 1002.2 - 1.0 - Partly cloudy 10 - - - -
24/03:06am 16.4 NNW 27 37 1002.7 - 1.0 - Partly cloudy 10 - - - -
24/03:00am 16.2 NNW 27 33 1003.1 - 1.0 - Cloudy 10 - - - -
24/02:30am 16.2 NNW 24 31 1004.1 - 1.0 - Partly cloudy 10 - - - -
24/02:00am 15.9 NNW 26 31 1005.0 - 1.0 - Partly cloudy 10 - - - -
24/01:30am 15.6 NNW 25 31 1005.6 - 1.0 - Partly cloudy 10 - - - -
24/01:00am 15.9 NW 21 25 1006.4 - 1.0 - Partly cloudy 10 - - - -
24/12:30am 15.6 NW 22 28 1007.2 - 1.0 - Partly cloudy 10 - - - -
24/12:00am 15.5 NW 22 28 1007.5 - 1.0 - Mostly cloudy 10 - - - -
 
Date/Time
EST
Temp

°C
Wind Pressure Rain
since 9am
mm
Weather Cloud Vis
km
Sea
Height
m
Swell
Dir
 
Speed
knots
Gust
knots
hPa Trend Height
m
Period
s
Dir
23/11:30pm 15.3 NW 19 26 1008.1 - 1.0 - Partly cloudy 10 - - - -
23/11:00pm 15.1 NW 19 25 1008.6 - 1.0 - Partly cloudy 10 - - - -
23/10:30pm 14.6 NW 19 26 1009.1 - 1.0 - Partly cloudy 10 - - - -
23/10:00pm 14.9 NNW 18 23 1009.5 - 0.8 - Partly cloudy 10 - - - -
23/09:30pm 15.1 NW 20 24 1009.8 - 0.8 - Partly cloudy 10 - - - -
23/09:04pm 14.3 NW 15 25 1010.1 - 0.8 - Partly cloudy 10 - - - -
23/09:00pm 14.8 NW 17 25 1010.0 - 0.8 - Cloudy 10 - - - -
23/08:57pm 14.9 NW 15 25 1009.9 - 0.8 - Partly cloudy 10 - - - -
23/08:30pm 13.6 NW 12 19 1010.4 - 0.2 - Partly cloudy 10 - - - -
23/08:17pm 14.4 NW 15 20 1010.5 - 0.0 - Partly cloudy 10 - - - -
23/08:00pm 12.8 WSW 3 9 1010.6 - 0.0 - Partly cloudy 10 - - - -
23/07:30pm 12.6 SW 5 6 1010.8 - 0.0 - - 10 - - - -
23/07:00pm 12.7 W 8 10 1010.9 - 0.0 - Partly cloudy 10 - - - -
23/06:30pm 13.6 W 12 17 1010.9 - 0.0 - Partly cloudy 10 - - - -
23/06:00pm 14.5 WNW 13 17 1010.9 - 0.0 - Partly cloudy 10 - - - -
23/05:30pm 14.6 NW 15 20 1010.9 - 0.0 - Partly cloudy 10 - - - -
23/05:00pm 13.8 NW 14 17 1011.1 - 0.0 - Partly cloudy 10 - - - -
23/04:52pm 13.7 NW 12 17 1011.2 - 0.0 - Partly cloudy 10 - - - -
23/04:39pm 13.6 NW 17 23 1011.3 - 0.0 - Partly cloudy 6 - - - -
23/04:30pm 14.5 WNW 16 21 1011.3 - 0.0 - Partly cloudy 10 - - - -
23/04:00pm 15.1 NNW 14 19 1011.5 - 0.0 - Partly cloudy 10 - - - -
23/03:30pm 15.0 N 14 17 1011.6 - 0.0 - Partly cloudy 10 - - - -
23/03:00pm 15.2 NW 10 13 1011.9 - 0.0 - Cloudy 10 - - - -
23/02:30pm 14.3 NW 12 20 1012.3 - 0.0 - Partly cloudy 10 - - - -
23/02:00pm 15.0 NNW 8 10 1012.6 - 0.0 - Partly cloudy 10 - - - -
23/01:30pm 15.0 NW 9 11 1013.0 - 0.0 - Partly cloudy 10 - - - -
23/01:00pm 14.6 NW 7 9 1013.4 - 0.0 - Partly cloudy 10 - - - -
23/12:30pm 15.0 NNW 7 10 1013.9 - 0.0 - Partly cloudy 10 - - - -
23/12:00pm 14.7 N 6 9 1014.4 - 0.0 - Cloudy 10 - - - -
23/11:30am 14.4 N 5 7 1014.6 - 0.0 - Cloudy 10 - - - -
23/11:00am 14.3 NNE 5 6 1014.7 - 0.0 - Cloudy 10 - - - -
23/10:30am 14.2 NW 4 6 1015.1 - 0.0 - Cloudy 10 - - - -
23/10:00am 14.0 S 3 4 1015.4 - 0.0 - Cloudy 10 - - - -
23/09:30am 13.4 SSW 3 5 1015.8 - 0.0 - Partly cloudy 10 - - - -
23/09:00am 12.1 S 4 5 1016.0 - 0.2 - Partly cloudy 10 - - - -
23/08:30am 11.4 SSW 4 5 1016.0 - 0.2 - Partly cloudy 10 - - - -
23/08:00am 9.4 S 6 7 1015.9 - 0.2 - Cloudy 10 - - - -
23/07:30am 8.5 CALM 0 0 1015.7 - 0.2 - Cloudy 10 - - - -
23/07:00am 7.9 SSE 4 5 1015.5 - 0.2 - Cloudy 10 - - - -
23/06:30am 7.6 S 7 9 1015.3 - 0.2 - Cloudy 10 - - - -
23/06:00am 8.3 S 8 10 1015.2 - 0.2 - Mostly cloudy 10 - - - -
23/05:30am 7.2 SSE 6 8 1015.4 - 0.2 - Partly cloudy 10 - - - -
23/05:00am 7.7 S 7 8 1015.1 - 0.2 - Partly cloudy 10 - - - -
23/04:30am 8.2 S 7 8 1015.2 - 0.2 - Partly cloudy 10 - - - -
23/04:00am 7.5 S 7 8 1015.2 - 0.2 - Partly cloudy 10 - - - -
23/03:30am 7.0 S 7 8 1015.3 - 0.2 - - 10 - - - -
23/03:00am 7.7 S 6 7 1015.2 - 0.2 - Mostly clear 10 - - - -
23/02:30am 8.0 SW 4 5 1015.5 - 0.2 - Partly cloudy 10 - - - -
23/02:00am 8.1 SSW 5 6 1015.8 - 0.2 - Partly cloudy 10 - - - -
23/01:30am 8.3 SSW 5 7 1015.9 - 0.2 - - 10 - - - -
23/01:00am 8.3 SSW 5 7 1015.9 - 0.2 - - 10 - - - -
23/12:30am 9.5 WSW 7 10 1015.8 - 0.2 - - 10 - - - -
23/12:00am 10.3 WSW 6 7 1015.6 - 0.2 - - 10 - - - -
 
Date/Time
EST
Temp

°C
Wind Pressure Rain
since 9am
mm
Weather Cloud Vis
km
Sea
Height
m
Swell
Dir
 
Speed
knots
Gust
knots
hPa Trend Height
m
Period
s
Dir
22/11:30pm 10.6 WSW 6 7 1015.7 - 0.2 - - 10 - - - -
22/11:00pm 10.1 W 8 9 1015.6 - 0.2 - - 10 - - - -
22/10:30pm 10.6 W 7 10 1015.6 - 0.2 - - 10 - - - -
22/10:00pm 12.5 WNW 11 14 1015.6 - 0.2 - Partly cloudy 10 - - - -
22/09:30pm 12.7 WNW 11 13 1015.2 - 0.2 - - 10 - - - -
22/09:00pm 12.6 W 12 14 1014.8 - 0.2 - - 10 - - - -
22/08:30pm 10.6 W 8 10 1014.6 - 0.2 - Partly cloudy 10 - - - -
22/08:00pm 11.0 W 6 8 1014.3 - 0.2 - - 10 - - - -
22/07:30pm 10.7 W 8 9 1014.1 - 0.2 - - 10 - - - -
22/07:00pm 11.5 W 10 12 1013.7 - 0.2 - - 10 - - - -
22/06:30pm 12.0 W 10 13 1013.4 - 0.2 - - 10 - - - -
22/06:00pm 13.3 W 12 15 1012.8 - 0.2 - - 10 - - - -
22/05:30pm 14.3 WSW 14 24 1012.3 - 0.2 - - 10 - - - -
22/05:00pm 15.1 W 14 18 1011.8 - 0.2 - - 10 - - - -
22/04:30pm 15.9 W 14 18 1011.5 - 0.2 - - 10 - - - -
22/04:00pm 16.8 WSW 13 19 1011.3 - 0.2 - - 10 - - - -
22/03:30pm 16.9 W 17 23 1010.9 - 0.2 - - 10 - - - -
22/03:00pm 17.6 W 18 23 1010.8 - 0.2 - - 10 - - - -
22/02:30pm 17.5 W 17 21 1010.4 - 0.2 - - 10 - - - -
22/02:00pm 18.0 W 19 24 1010.0 - 0.2 - Partly cloudy 10 - - - -
22/01:30pm 18.3 W 14 22 1009.7 - 0.2 - Partly cloudy 10 - - - -
22/01:00pm 18.7 WNW 18 24 1009.7 - 0.2 - Partly cloudy 10 - - - -
22/12:30pm 18.3 WNW 17 21 1009.6 - 0.2 - Partly cloudy 10 - - - -
22/12:00pm 17.7 WNW 18 22 1009.8 - 0.2 - - 10 - - - -
22/11:30am 17.4 WNW 19 23 1009.7 - 0.2 - - 10 - - - -
22/11:00am 17.4 NW 16 19 1009.7 - 0.2 - - 10 - - - -
22/10:30am 17.1 WNW 16 19 1009.9 - 0.2 - - 10 - - - -
22/10:00am 17.0 WNW 15 18 1009.9 - 0.2 - - 10 - - - -
22/09:30am 16.1 WNW 16 21 1009.7 - 0.0 - - 10 - - - -
22/09:00am 16.0 NW 14 19 1009.6 - 13.8 - - 10 - - - -
22/08:30am 16.1 WNW 14 17 1009.4 - 13.8 - Partly cloudy 10 - - - -
22/08:00am 16.2 WNW 16 19 1009.3 - 13.8 - Partly cloudy 10 - - - -
22/07:30am 16.4 WNW 14 18 1008.8 - 13.8 - Partly cloudy 10 - - - -
22/07:00am 16.5 WNW 17 21 1008.3 - 13.8 - Partly cloudy 8 - - - -
22/06:45am 16.6 NW 19 24 1008.3 - 13.8 - Partly cloudy 8 - - - -
22/06:34am 16.5 NW 20 26 1008.1 - 13.8 - Partly cloudy 8 - - - -
22/06:31am 16.5 NW 20 28 1008.0 - 13.8 - Partly cloudy 8 - - - -
22/06:30am 16.6 NW 21 28 1008.0 - 13.8 - Partly cloudy 8 - - - -
22/06:19am 16.3 NW 23 32 1007.6 - 13.8 - Partly cloudy 9 - - - -
22/06:00am 16.1 NW 24 31 1007.5 - 13.8 - Cloudy 5 - - - -
22/05:30am 16.5 NW 25 30 1007.5 - 12.8 - Partly cloudy 6 - - - -
22/05:28am 16.4 NW 25 32 1007.5 - 12.8 - Partly cloudy 7 - - - -
22/05:23am 16.3 NW 24 32 1007.6 - 12.8 - Partly cloudy 6 - - - -
22/05:17am 16.1 NW 24 34 1007.4 - 12.8 - Partly cloudy 8 - - - -
22/05:11am 16.2 NW 25 34 1007.4 - 12.8 - Partly cloudy 10 - - - -
22/05:00am 16.1 NW 21 29 1007.5 - 12.8 - Partly cloudy 9 - - - -
22/04:57am 16.1 NW 20 26 1007.6 - 12.8 - Partly cloudy 8 - - - -
22/04:49am 16.0 NW 19 25 1007.8 - 12.8 - Partly cloudy 7 - - - -
22/04:30am 16.2 WNW 17 24 1008.1 - 12.0 - Partly cloudy 5 - - - -
22/04:22am 16.4 WNW 18 22 1008.0 - 11.8 - Partly cloudy 6 - - - -
22/04:00am 17.3 NW 19 24 1007.7 - 11.2 - Cloudy 10 - - - -
22/03:30am 17.9 NW 21 30 1007.5 - 11.2 - Cloudy 10 - - - -
22/03:00am 17.8 NW 20 28 1007.7 - 11.2 - Cloudy 10 - - - -
22/02:30am 17.6 NW 18 23 1008.0 - 11.2 - Cloudy 10 - - - -
22/02:00am 17.4 NW 17 23 1008.3 - 11.2 - Cloudy 10 - - - -
22/01:30am 17.3 NW 17 23 1008.8 - 11.2 - Cloudy 10 - - - -
22/01:00am 17.3 NW 16 22 1008.9 - 11.2 - Cloudy 10 - - - -
22/12:30am 16.7 NW 14 19 1009.5 - 11.2 - Partly cloudy 10 - - - -
22/12:00am 16.7 NNW 15 19 1009.8 - 11.0 - Cloudy 10 - - - -
 
Date/Time
EST
Temp

°C
Wind Pressure Rain
since 9am
mm
Weather Cloud Vis
km
Sea
Height
m
Swell
Dir
 
Speed
knots
Gust
knots
hPa Trend Height
m
Period
s
Dir
21/11:30pm 16.1 NNW 14 18 1010.3 - 11.0 - Partly cloudy 9 - - - -
21/11:00pm 16.2 N 17 22 1010.4 - 10.8 - Partly cloudy 10 - - - -
21/10:30pm 16.0 N 13 17 1011.0 - 10.6 - Partly cloudy 10 - - - -
21/10:00pm 15.7 N 15 19 1011.4 - 10.2 - Partly cloudy 10 - - - -
21/09:30pm 15.3 N 13 16 1011.7 - 10.0 - Partly cloudy 10 - - - -
21/09:00pm 15.0 N 14 17 1011.9 - 9.2 - Cloudy 10 - - - -
21/08:49pm 14.7 N 12 16 1012.2 - 9.2 - Partly cloudy 10 - - - -
21/08:30pm 9.7 S 8 12 1012.5 - 9.0 - Partly cloudy 10 - - - -

Other Formats:

Comma delimited format used in spreadsheet applications
http://www.bom.gov.au/fwo/IDV60701/IDV60701.95960.axf

JavaScript Object Notation format (JSON) in row-major order
http://www.bom.gov.au/fwo/IDV60701/IDV60701.95960.json